Time;durP1;ratioP1;P1;durP2;ratioP2;P2;SDS_P1;SDS_P2;PMS_P1;PMS_P2;Temp;Humidity;BMP_temperature;BMP_pressure;BME280_temperature;BME280_humidity;BME280_pressure;Samples;Min_cycle;Max_cycle;Signal;HPM_P1;HPM_P2
2023/05/11 00:02:04;;;;;;;5.47;1.17;;;;;;;20.22;47.44;101374.94;16095266;19;130707;-52
2023/05/11 00:07:26;;;;;;;6.45;0.93;;;;;;;20.21;47.49;101372.44;16109340;19;130887;-41
2023/05/11 00:12:48;;;;;;;2.20;1.00;;;;;;;20.19;47.96;101372.66;16116040;19;129643;-45
2023/05/11 00:18:10;;;;;;;2.42;0.82;;;;;;;20.18;47.46;101379.31;16122364;19;130029;-41
2023/05/11 00:23:32;;;;;;;2.13;0.70;;;;;;;20.16;47.55;101364.84;16116345;19;130379;-40
2023/05/11 00:28:54;;;;;;;3.03;0.93;;;;;;;20.15;47.55;101368.69;16113582;19;129409;-44
2023/05/11 00:34:16;;;;;;;1.92;0.80;;;;;;;20.15;47.97;101368.69;16108534;19;131864;-41
2023/05/11 00:39:39;;;;;;;2.28;0.95;;;;;;;20.12;48.07;101364.47;16108966;19;132280;-43
2023/05/11 00:45:01;;;;;;;2.25;0.90;;;;;;;20.11;47.94;101365.56;16112741;19;130492;-43
2023/05/11 00:50:24;;;;;;;1.48;0.90;;;;;;;20.11;47.78;101367.50;16118432;19;131406;-43
2023/05/11 00:55:46;;;;;;;0.75;0.70;;;;;;;20.08;47.86;101365.19;16116178;19;129990;-42
2023/05/11 01:01:08;;;;;;;3.88;1.00;;;;;;;20.08;47.61;101370.75;16108903;19;129911;-43
2023/05/11 01:06:43;;;;;;;3.55;0.82;;;;;;;20.10;48.01;101365.81;16109303;19;129467;-43
2023/05/11 01:12:05;;;;;;;1.73;0.70;;;;;;;20.07;47.82;101367.16;16112730;19;130562;-44
2023/05/11 01:17:43;;;;;;;2.13;0.93;;;;;;;20.08;47.97;101362.41;16115217;19;132923;-42
2023/05/11 01:23:35;;;;;;;1.85;0.73;;;;;;;20.06;47.70;101370.19;16110905;19;130199;-46
2023/05/11 01:29:16;;;;;;;2.45;0.80;;;;;;;20.06;47.87;101359.06;16110986;19;130915;-42
2023/05/11 01:34:39;;;;;;;2.78;0.90;;;;;;;20.03;48.05;101360.38;16113637;19;129169;-44
2023/05/11 01:40:05;;;;;;;1.77;0.73;;;;;;;20.02;47.84;101363.41;16110689;19;131448;-41
2023/05/11 01:45:30;;;;;;;1.40;0.60;;;;;;;20.01;47.58;101358.94;16110889;19;131944;-43
2023/05/11 01:50:56;;;;;;;1.80;0.80;;;;;;;20.01;47.71;101358.94;16108212;19;131963;-41
2023/05/11 01:56:21;;;;;;;1.38;0.70;;;;;;;19.99;48.07;101360.03;16107122;19;131680;-41
2023/05/11 02:01:46;;;;;;;5.15;0.80;;;;;;;19.99;47.88;101354.47;16107207;19;130949;-43
2023/05/11 02:07:10;;;;;;;1.88;0.70;;;;;;;19.98;48.08;101352.75;16104657;19;130194;-43
2023/05/11 02:12:35;;;;;;;1.10;0.68;;;;;;;19.98;48.16;101363.88;16107768;19;129741;-41
2023/05/11 02:17:58;;;;;;;2.33;0.70;;;;;;;19.98;47.85;101372.19;16108704;19;130951;-43
2023/05/11 02:23:23;;;;;;;2.22;0.70;;;;;;;19.96;47.84;101357.72;16107734;19;130894;-41
2023/05/11 02:28:46;;;;;;;1.30;0.70;;;;;;;19.95;48.12;101352.41;16110354;19;129273;-41
2023/05/11 02:34:19;;;;;;;1.27;0.80;;;;;;;19.95;47.88;101356.00;16106389;19;131403;-42
2023/05/11 02:39:45;;;;;;;1.52;0.70;;;;;;;19.94;47.69;101354.31;16107361;19;130589;-43
2023/05/11 02:45:10;;;;;;;1.67;0.40;;;;;;;19.93;47.88;101354.59;16103974;19;134255;-43
2023/05/11 02:50:36;;;;;;;1.40;0.70;;;;;;;19.92;47.98;101348.19;16111036;19;130399;-41
2023/05/11 02:55:58;;;;;;;1.00;0.70;;;;;;;19.91;47.61;101353.97;16104132;19;131203;-44
2023/05/11 03:01:20;;;;;;;2.40;0.50;;;;;;;19.89;47.69;101347.81;16109540;19;129640;-43
2023/05/11 03:06:43;;;;;;;1.60;0.60;;;;;;;19.89;47.91;101350.59;16105272;19;130495;-44
2023/05/11 03:12:05;;;;;;;0.80;0.52;;;;;;;19.87;48.07;101356.41;16111008;19;130925;-42
2023/05/11 03:17:28;;;;;;;1.77;0.80;;;;;;;19.86;47.95;101349.16;16108500;19;131948;-41
2023/05/11 03:22:52;;;;;;;1.25;0.70;;;;;;;19.86;47.96;101345.56;16113084;19;130806;-42
2023/05/11 03:28:15;;;;;;;1.15;0.50;;;;;;;19.86;47.71;101346.38;16127344;19;129143;-46
2023/05/11 03:33:37;;;;;;;0.88;0.60;;;;;;;19.84;48.01;101351.34;16119535;19;130389;-40
2023/05/11 03:39:00;;;;;;;0.57;0.50;;;;;;;19.83;47.74;101347.72;16116376;19;130513;-42
2023/05/11 03:44:23;;;;;;;1.88;0.57;;;;;;;19.83;47.68;101346.88;16121960;19;131032;-41
2023/05/11 03:49:46;;;;;;;3.22;0.68;;;;;;;19.82;47.85;101350.72;16121025;19;131361;-43
2023/05/11 03:55:08;;;;;;;0.68;0.55;;;;;;;19.80;47.96;101350.16;16121464;19;129623;-46
2023/05/11 04:00:30;;;;;;;0.98;0.60;;;;;;;19.79;47.73;101349.28;16118161;19;129740;-41
2023/05/11 04:05:52;;;;;;;1.33;0.60;;;;;;;19.79;47.68;101351.25;16117274;19;129430;-42
2023/05/11 04:11:15;;;;;;;1.35;0.75;;;;;;;19.78;47.69;101349.56;16117093;19;129915;-42
2023/05/11 04:16:36;;;;;;;0.77;0.45;;;;;;;19.77;48.17;101350.63;16116417;19;130633;-43
2023/05/11 04:21:58;;;;;;;4.78;0.60;;;;;;;19.76;47.92;101365.59;16118190;19;131201;-43
2023/05/11 04:27:20;;;;;;;2.53;0.75;;;;;;;19.76;47.86;101371.16;16118664;19;129292;-42
2023/05/11 04:32:42;;;;;;;1.33;0.50;;;;;;;19.75;47.74;101383.34;16115378;19;130021;-47
2023/05/11 04:38:05;;;;;;;1.17;0.90;;;;;;;19.73;47.68;101378.03;16120555;19;129538;-41
2023/05/11 04:43:26;;;;;;;1.45;0.68;;;;;;;19.73;47.59;101382.75;16119285;19;134156;-41
2023/05/11 04:48:48;;;;;;;1.85;0.70;;;;;;;19.69;47.84;101380.44;16117927;19;130813;-43
2023/05/11 04:54:10;;;;;;;1.60;0.80;;;;;;;19.68;47.67;101380.69;16114671;19;129819;-45
2023/05/11 04:59:32;;;;;;;2.20;0.90;;;;;;;19.68;48.04;101381.56;16115716;19;130938;-42
2023/05/11 05:04:54;;;;;;;3.00;0.50;;;;;;;19.68;47.83;101392.66;16115002;19;129964;-40
2023/05/11 05:10:17;;;;;;;1.20;0.50;;;;;;;19.74;47.95;101401.09;16112290;19;130429;-39
2023/05/11 05:15:39;;;;;;;1.58;0.70;;;;;;;19.81;48.17;101407.38;16111215;19;130762;-43
2023/05/11 05:21:01;;;;;;;12.73;1.30;;;;;;;19.88;47.80;101407.25;16110979;19;130368;-42
2023/05/11 05:26:23;;;;;;;32.60;2.10;;;;;;;19.92;47.62;101412.06;16106547;19;131342;-43
2023/05/11 05:31:45;;;;;;;38.85;3.33;;;;;;;19.93;47.54;101419.31;16101331;19;129996;-43
2023/05/11 05:37:08;;;;;;;34.42;2.97;;;;;;;19.94;47.47;101423.75;16108032;19;130780;-42
2023/05/11 05:42:31;;;;;;;37.63;2.90;;;;;;;19.94;47.40;101425.69;16108845;19;129550;-42
2023/05/11 05:47:53;;;;;;;38.03;3.00;;;;;;;19.93;47.38;101427.66;16108259;19;129664;-45
2023/05/11 05:53:15;;;;;;;30.88;3.88;;;;;;;19.93;47.77;101441.53;16114792;19;130327;-44
2023/05/11 05:58:37;;;;;;;25.85;3.83;;;;;;;19.91;47.58;101443.69;16113531;19;130140;-42
2023/05/11 06:03:59;;;;;;;25.88;2.78;;;;;;;19.91;47.47;101449.25;16114577;19;130056;-46
2023/05/11 06:09:21;;;;;;;26.52;3.42;;;;;;;19.90;47.68;101455.88;16110831;19;131902;-41
2023/05/11 06:14:43;;;;;;;27.98;2.75;;;;;;;19.89;47.22;101454.19;16116054;19;130019;-41
2023/05/11 06:20:06;;;;;;;23.42;2.90;;;;;;;19.87;47.47;101453.59;16117749;19;129827;-41
2023/05/11 06:25:27;;;;;;;20.45;3.28;;;;;;;19.87;47.74;101456.38;16114107;19;130463;-41
2023/05/11 06:30:49;;;;;;;28.02;2.78;;;;;;;19.86;47.22;101457.44;16113434;19;129578;-41
2023/05/11 06:36:11;;;;;;;26.27;2.67;;;;;;;19.85;47.55;101464.09;16110394;19;130322;-43
2023/05/11 06:41:33;;;;;;;25.27;3.53;;;;;;;19.83;47.34;101474.59;16113711;19;129299;-42
2023/05/11 06:46:55;;;;;;;28.92;3.88;;;;;;;19.80;47.12;101472.31;16113997;19;129555;-42
2023/05/11 06:52:17;;;;;;;18.00;3.20;;;;;;;19.79;47.35;101476.19;16112170;19;134153;-43
2023/05/11 06:57:39;;;;;;;27.80;3.17;;;;;;;19.79;47.56;101476.19;16116890;19;129884;-44
2023/05/11 07:03:01;;;;;;;32.28;4.68;;;;;;;19.78;47.11;101469.75;16127934;19;129824;-42
2023/05/11 07:08:23;;;;;;;27.52;3.25;;;;;;;19.79;47.28;101478.94;16130247;19;129498;-43
2023/05/11 07:13:45;;;;;;;20.98;2.95;;;;;;;19.81;47.52;101466.50;16127446;19;129411;-43
2023/05/11 07:19:08;;;;;;;20.85;2.58;;;;;;;19.87;47.04;101473.03;16126435;19;130219;-41
2023/05/11 07:24:31;;;;;;;21.15;2.75;;;;;;;19.94;47.02;101476.50;16128463;19;130079;-43
2023/05/11 07:29:53;;;;;;;24.40;2.72;;;;;;;19.99;47.06;101482.22;16123596;19;130596;-44
2023/05/11 07:35:15;;;;;;;16.35;2.50;;;;;;;20.04;47.07;101477.91;16124378;19;129639;-43
2023/05/11 07:40:37;;;;;;;15.10;2.05;;;;;;;20.12;47.09;101480.28;16122127;19;130634;-46
2023/05/11 07:45:58;;;;;;;17.23;2.60;;;;;;;20.22;47.60;101496.34;16122644;19;130702;-47
2023/05/11 07:51:20;;;;;;;7.50;1.92;;;;;;;20.29;47.39;101489.59;16126659;19;128953;-48
2023/05/11 07:56:42;;;;;;;12.95;1.92;;;;;;;20.33;47.29;101487.16;16127408;19;129476;-44
2023/05/11 08:02:06;;;;;;;14.23;2.38;;;;;;;20.40;47.53;101482.28;16126052;19;129690;-50
2023/05/11 08:07:28;;;;;;;9.70;1.92;;;;;;;20.49;47.47;101477.19;16121229;19;131469;-44
2023/05/11 08:12:50;;;;;;;8.52;1.77;;;;;;;20.51;47.54;101477.81;16121171;19;129716;-44
2023/05/11 08:18:12;;;;;;;10.15;1.60;;;;;;;20.54;47.49;101476.47;16122037;19;130846;-46
2023/05/11 08:23:34;;;;;;;14.90;1.95;;;;;;;20.59;47.47;101485.75;16122952;19;130210;-50
2023/05/11 08:28:55;;;;;;;6.53;1.25;;;;;;;20.60;47.48;101470.75;16122200;19;129637;-44
2023/05/11 08:34:17;;;;;;;4.68;1.45;;;;;;;20.62;47.86;101472.47;16121359;19;130111;-45
2023/05/11 08:39:40;;;;;;;3.92;1.10;;;;;;;20.64;47.75;101470.28;16122328;19;131473;-45
2023/05/11 08:45:06;;;;;;;4.27;1.30;;;;;;;20.66;47.63;101471.72;16120824;19;130085;-48
2023/05/11 08:50:28;;;;;;;6.38;1.13;;;;;;;20.67;47.82;101480.91;16118620;19;129910;-43
2023/05/11 08:55:50;;;;;;;4.97;1.08;;;;;;;20.66;48.29;101476.44;16116912;19;130105;-45
2023/05/11 09:01:13;;;;;;;3.58;1.00;;;;;;;20.66;48.22;101480.06;16118627;19;129837;-46
2023/05/11 09:06:37;;;;;;;8.43;1.38;;;;;;;20.68;48.25;101489.00;16119772;19;129023;-44
2023/05/11 09:11:59;;;;;;;6.60;1.05;;;;;;;20.72;48.22;101489.34;16120755;19;129466;-44
2023/05/11 09:17:24;;;;;;;10.68;1.40;;;;;;;20.77;48.42;101492.28;16120472;19;129690;-45
2023/05/11 09:22:47;;;;;;;10.93;1.58;;;;;;;20.77;48.26;101492.28;16119056;19;129469;-44
2023/05/11 09:28:12;;;;;;;5.68;0.90;;;;;;;20.81;48.35;101493.44;16118026;19;129888;-47
2023/05/11 09:33:36;;;;;;;7.65;1.27;;;;;;;20.87;47.81;101486.03;16118125;19;131388;-45
2023/05/11 09:39:04;;;;;;;7.35;1.10;;;;;;;20.96;48.08;101489.28;16111801;19;129447;-45
2023/05/11 09:44:30;;;;;;;6.07;1.00;;;;;;;20.96;47.96;101486.50;16119568;19;130372;-42
2023/05/11 09:49:52;;;;;;;5.35;1.15;;;;;;;20.94;48.09;101491.47;16115273;19;131376;-43
2023/05/11 09:55:14;;;;;;;2.38;0.95;;;;;;;20.95;47.87;101493.16;16114105;19;130960;-44
2023/05/11 10:00:49;;;;;;;4.10;0.88;;;;;;;20.97;47.87;101500.19;16114509;19;129886;-49
2023/05/11 10:06:11;;;;;;;29.93;2.00;;;;;;;20.98;48.22;101498.22;16113133;19;131433;-44
2023/05/11 10:11:33;;;;;;;3.38;0.98;;;;;;;20.98;47.99;101498.22;16115078;19;130876;-43
2023/05/11 10:16:57;;;;;;;5.40;1.20;;;;;;;20.98;48.38;101493.53;16114321;19;130978;-46
2023/05/11 10:22:28;;;;;;;3.42;1.30;;;;;;;21.01;47.89;101494.94;16113951;19;131061;-47
2023/05/11 10:27:50;;;;;;;4.50;1.00;;;;;;;21.04;48.15;101498.06;16112374;19;131294;-41
2023/05/11 10:33:12;;;;;;;11.95;1.50;;;;;;;21.05;48.04;101485.84;16114554;19;131032;-46
2023/05/11 10:38:34;;;;;;;9.02;1.65;;;;;;;21.06;48.01;101483.91;16113499;19;131088;-43
2023/05/11 10:44:10;;;;;;;3.78;0.88;;;;;;;21.06;48.26;101475.56;16111790;19;129768;-44
2023/05/11 10:49:44;;;;;;;8.27;1.67;;;;;;;21.03;47.76;101463.00;16110943;19;130751;-46
2023/05/11 10:55:35;;;;;;;6.13;1.27;;;;;;;20.99;47.79;101466.53;16113035;19;130163;-45
2023/05/11 11:01:45;;;;;;;6.45;1.25;;;;;;;20.96;47.54;101475.38;16105239;19;130170;-45
2023/05/11 11:07:08;;;;;;;7.90;1.40;;;;;;;20.93;47.85;101468.38;16107550;19;134618;-46
2023/05/11 11:12:33;;;;;;;4.57;1.15;;;;;;;20.92;47.47;101465.84;16109515;19;130760;-44
2023/05/11 11:18:33;;;;;;;12.10;2.05;;;;;;;20.97;47.04;101468.72;16109366;19;131426;-45
2023/05/11 11:23:55;;;;;;;19.17;2.10;;;;;;;21.00;47.01;101451.53;16114509;19;129654;-43
2023/05/11 11:29:17;;;;;;;12.95;1.58;;;;;;;21.01;46.98;101450.44;16113950;19;130918;-43
2023/05/11 11:34:39;;;;;;;14.27;1.63;;;;;;;21.03;47.05;101445.47;16113361;19;129588;-47
2023/05/11 11:40:02;;;;;;;24.92;6.45;;;;;;;21.05;46.69;101435.78;16110114;19;129680;-42
2023/05/11 11:45:37;;;;;;;46.72;20.63;;;;;;;21.11;47.41;101439.50;16124357;19;129921;-43
2023/05/11 11:51:05;;;;;;;41.25;19.40;;;;;;;21.17;47.31;101446.00;16124702;19;130903;-42
2023/05/11 11:56:27;;;;;;;53.20;25.30;;;;;;;21.20;47.29;101440.75;16130619;19;134041;-45
2023/05/11 12:01:50;;;;;;;46.35;23.40;;;;;;;21.22;47.57;101437.75;16128002;19;130276;-44
2023/05/11 12:07:14;;;;;;;51.15;26.90;;;;;;;21.21;47.33;101439.69;16126864;19;128978;-43
2023/05/11 12:12:43;;;;;;;56.75;31.70;;;;;;;21.22;47.11;101438.59;16127199;19;129625;-41
2023/05/11 12:18:05;;;;;;;55.28;28.40;;;;;;;21.22;47.12;101438.59;16124198;19;129636;-43
2023/05/11 12:23:28;;;;;;;62.42;34.97;;;;;;;21.25;46.72;101436.41;16127487;19;131256;-47
2023/05/11 12:28:51;;;;;;;65.45;40.97;;;;;;;21.27;46.74;101421.13;16122344;19;131399;-42
2023/05/11 12:34:23;;;;;;;68.78;41.38;;;;;;;21.27;46.68;101423.91;16124159;19;129732;-41
2023/05/11 12:39:45;;;;;;;80.68;46.78;;;;;;;21.29;46.55;101415.31;16120972;19;130666;-42
2023/05/11 12:45:07;;;;;;;77.38;45.30;;;;;;;21.30;46.92;101414.19;16120946;19;131428;-45
2023/05/11 12:50:29;;;;;;;113.55;72.80;;;;;;;21.30;46.81;101411.41;16118459;19;129496;-43
2023/05/11 12:55:58;;;;;;;102.47;67.13;;;;;;;21.34;46.76;101407.03;16119255;19;129679;-43
2023/05/11 13:01:24;;;;;;;77.93;50.47;;;;;;;21.36;46.56;101404.84;16121583;19;131655;-45
2023/05/11 13:06:46;;;;;;;;;;;;;;;21.30;46.12;101400.28;16116183;19;129526;-44
2023/05/11 13:12:17;;;;;;;64.10;40.22;;;;;;;21.30;46.54;101397.50;16117309;19;129588;-43
2023/05/11 13:17:41;;;;;;;51.08;33.28;;;;;;;21.28;46.40;101396.94;16120951;19;130496;-43
2023/05/11 13:23:08;;;;;;;41.63;25.00;;;;;;;21.26;45.73;101390.78;16116428;19;131803;-41
2023/05/11 13:28:32;;;;;;;35.60;19.25;;;;;;;21.21;45.86;101397.09;16117777;19;130603;-42
2023/05/11 13:33:54;;;;;;;28.93;17.97;;;;;;;21.22;46.07;101388.50;16118137;19;129430;-42
2023/05/11 13:39:16;;;;;;;29.42;15.90;;;;;;;21.27;45.86;101389.69;16115067;19;130748;-44
2023/05/11 13:44:38;;;;;;;21.17;12.80;;;;;;;21.26;45.73;101386.03;16117280;19;130432;-41
2023/05/11 13:50:00;;;;;;;39.92;22.45;;;;;;;21.28;45.25;101380.25;16115792;19;131020;-41
2023/05/11 13:55:22;;;;;;;35.22;20.17;;;;;;;21.28;45.22;101385.81;16120345;19;130750;-42
2023/05/11 14:00:45;;;;;;;31.08;19.10;;;;;;;21.26;44.92;101376.88;16115710;19;130910;-44
2023/05/11 14:06:27;;;;;;;29.27;16.52;;;;;;;21.22;45.18;101374.59;16114792;19;131210;-45
2023/05/11 14:11:49;;;;;;;27.52;15.00;;;;;;;21.19;44.88;101372.28;16115506;19;129953;-46
2023/05/11 14:17:12;;;;;;;24.48;12.27;;;;;;;21.18;44.87;101372.56;16114656;19;129844;-42
2023/05/11 14:22:34;;;;;;;21.20;12.10;;;;;;;21.14;45.14;101372.22;16113918;19;131079;-41
2023/05/11 14:27:56;;;;;;;19.38;10.93;;;;;;;21.12;45.18;101370.78;16115077;19;129385;-46
2023/05/11 14:33:18;;;;;;;22.00;10.90;;;;;;;21.11;45.11;101369.94;16112551;19;130775;-48
2023/05/11 14:38:41;;;;;;;17.52;9.52;;;;;;;21.14;44.99;101372.22;16116676;19;129497;-43
2023/05/11 14:44:03;;;;;;;13.73;7.78;;;;;;;21.17;44.44;101357.78;16114687;19;130070;-41
2023/05/11 14:49:25;;;;;;;15.80;7.90;;;;;;;21.20;44.85;101357.28;16119227;19;129977;-44
2023/05/11 14:54:47;;;;;;;16.50;6.93;;;;;;;21.21;44.52;101358.16;16115825;19;131278;-44
2023/05/11 15:00:10;;;;;;;11.13;6.93;;;;;;;21.24;44.79;101362.34;16113705;19;130297;-42
2023/05/11 15:05:33;;;;;;;12.13;6.57;;;;;;;21.21;44.54;101341.47;16116480;19;130144;-44
2023/05/11 15:10:55;;;;;;;17.25;6.53;;;;;;;21.20;44.73;101337.81;16113253;19;129300;-42
2023/05/11 15:16:17;;;;;;;30.80;6.95;;;;;;;21.17;44.80;101341.09;16109607;19;130919;-44
2023/05/11 15:21:39;;;;;;;18.13;7.22;;;;;;;21.13;44.86;101348.28;16126037;19;129462;-42
2023/05/11 15:27:01;;;;;;;21.60;7.32;;;;;;;21.07;44.47;101360.41;16124727;19;130969;-43
2023/05/11 15:32:22;;;;;;;27.10;7.10;;;;;;;20.97;44.30;101360.25;16130615;19;129704;-45
2023/05/11 15:37:44;;;;;;;21.55;6.97;;;;;;;20.88;44.65;101369.00;16124713;19;130940;-42
2023/05/11 15:43:07;;;;;;;21.45;6.85;;;;;;;20.84;44.58;101376.16;16125520;19;130026;-47
2023/05/11 15:48:28;;;;;;;20.70;6.30;;;;;;;20.82;44.30;101370.00;16126703;19;130640;-41
2023/05/11 15:53:51;;;;;;;17.27;6.25;;;;;;;20.81;44.39;101376.66;16121501;19;130714;-44
2023/05/11 15:59:12;;;;;;;14.90;5.82;;;;;;;20.83;44.50;101380.03;16124436;19;130792;-44
2023/05/11 16:04:34;;;;;;;13.50;5.00;;;;;;;20.84;44.12;101376.16;16123772;19;131903;-45
2023/05/11 16:09:56;;;;;;;12.52;4.55;;;;;;;20.86;44.49;101375.94;16122018;19;129940;-43
2023/05/11 16:15:18;;;;;;;12.73;4.22;;;;;;;20.86;44.03;101376.75;16124088;19;129667;-45
2023/05/11 16:20:40;;;;;;;8.20;3.80;;;;;;;20.89;44.17;101379.03;16118662;19;129521;-47
2023/05/11 16:26:02;;;;;;;10.15;4.07;;;;;;;20.94;44.37;101383.84;16122342;19;130675;-43
2023/05/11 16:31:24;;;;;;;11.27;3.58;;;;;;;20.99;44.10;101388.66;16123330;19;130560;-42
2023/05/11 16:36:46;;;;;;;9.10;3.53;;;;;;;21.01;44.15;101392.84;16123564;19;131074;-42
2023/05/11 16:42:07;;;;;;;9.73;3.28;;;;;;;21.01;44.11;101400.38;16118111;19;129854;-43
2023/05/11 16:47:30;;;;;;;7.38;3.28;;;;;;;20.97;44.17;101402.81;16118494;19;131556;-42
2023/05/11 16:52:52;;;;;;;8.93;3.50;;;;;;;20.92;43.83;101408.28;16115767;19;130718;-43
2023/05/11 16:58:14;;;;;;;8.63;3.58;;;;;;;20.86;44.33;101407.34;16116912;19;129785;-43
2023/05/11 17:03:35;;;;;;;9.88;4.00;;;;;;;20.82;44.13;101406.16;16117386;19;131008;-46
2023/05/11 17:09:08;;;;;;;9.32;4.47;;;;;;;20.81;44.78;101404.47;16117468;19;130410;-43
2023/05/11 17:14:37;;;;;;;11.20;4.68;;;;;;;20.80;44.65;101399.16;16118346;19;130120;-46
2023/05/11 17:20:00;;;;;;;9.63;4.72;;;;;;;20.78;45.06;101393.84;16112665;19;131427;-44
2023/05/11 17:25:22;;;;;;;11.50;4.43;;;;;;;20.79;44.78;101398.31;16115320;19;134044;-46
2023/05/11 17:30:44;;;;;;;10.73;4.60;;;;;;;20.79;45.31;101395.53;16116979;19;129605;-44
2023/05/11 17:36:10;;;;;;;11.00;4.32;;;;;;;20.81;45.11;101398.91;16114696;19;130319;-44
2023/05/11 17:41:32;;;;;;;7.72;4.05;;;;;;;20.83;45.38;101401.44;16037710;19;129896;-45
2023/05/11 17:46:54;;;;;;;10.70;4.03;;;;;;;20.83;45.36;101410.63;16118006;19;130275;-48
2023/05/11 17:52:15;;;;;;;10.13;3.78;;;;;;;20.87;45.45;101413.72;16109679;19;130262;-49
2023/05/11 17:57:37;;;;;;;7.85;3.92;;;;;;;20.89;45.13;101417.13;16113638;19;130633;-48
2023/05/11 18:02:59;;;;;;;6.90;3.85;;;;;;;20.93;45.71;101432.22;16113502;19;130948;-43
2023/05/11 18:08:21;;;;;;;7.13;3.75;;;;;;;21.01;45.16;101437.38;16113053;19;130135;-46
2023/05/11 18:13:44;;;;;;;10.02;3.65;;;;;;;21.11;45.46;101439.50;16113882;19;129578;-42
2023/05/11 18:19:06;;;;;;;10.52;3.72;;;;;;;21.18;45.16;101440.16;16086827;19;130624;-42
2023/05/11 18:24:28;;;;;;;5.15;3.10;;;;;;;21.22;45.31;101444.16;16112215;19;130386;-44
2023/05/11 18:29:51;;;;;;;6.10;3.55;;;;;;;21.27;45.00;101459.25;16111397;19;130497;-43
2023/05/11 18:35:15;;;;;;;9.55;2.88;;;;;;;21.30;44.91;101461.50;16114517;19;129888;-45
2023/05/11 18:40:37;;;;;;;8.63;3.25;;;;;;;21.34;44.59;101476.63;16111449;19;130362;-45
2023/05/11 18:45:59;;;;;;;4.15;2.72;;;;;;;21.35;44.88;101478.31;16108123;19;129498;-46
2023/05/11 18:51:21;;;;;;;5.60;2.80;;;;;;;21.39;44.57;101471.16;16110400;19;129596;-47
2023/05/11 18:56:43;;;;;;;6.53;2.65;;;;;;;21.40;45.04;101481.19;16118855;19;129663;-45
2023/05/11 19:02:05;;;;;;;6.20;2.80;;;;;;;21.43;44.57;101472.31;16122890;19;130894;-46
2023/05/11 19:07:27;;;;;;;6.30;2.70;;;;;;;21.46;44.74;101482.97;16120245;19;129693;-46
2023/05/11 19:12:49;;;;;;;6.78;2.70;;;;;;;21.48;44.76;101488.25;16118881;19;129921;-47
2023/05/11 19:18:11;;;;;;;9.35;2.72;;;;;;;21.45;44.99;101497.97;16118806;19;130396;-44
2023/05/11 19:23:33;;;;;;;16.38;3.20;;;;;;;21.43;45.00;101502.94;16116879;19;131491;-43
2023/05/11 19:28:55;;;;;;;21.25;2.83;;;;;;;21.42;44.91;101498.47;16120198;19;129852;-44
2023/05/11 19:34:17;;;;;;;12.43;2.78;;;;;;;21.39;45.21;101507.34;16121496;19;130078;-50
2023/05/11 19:39:39;;;;;;;21.48;3.10;;;;;;;21.36;44.96;101505.06;16120332;19;130145;-50
2023/05/11 19:45:01;;;;;;;13.23;3.42;;;;;;;21.33;45.09;101511.09;16119619;19;130934;-47
2023/05/11 19:50:23;;;;;;;13.82;3.05;;;;;;;21.30;45.22;101517.16;16118098;19;129452;-46
2023/05/11 19:55:46;;;;;;;14.50;2.90;;;;;;;21.28;45.09;101524.94;16120172;19;131441;-45
2023/05/11 20:01:08;;;;;;;12.48;2.90;;;;;;;21.22;45.17;101516.50;16120839;19;130556;-43
2023/05/11 20:06:30;;;;;;;14.88;2.78;;;;;;;21.19;45.13;101528.13;16121590;19;129731;-44
2023/05/11 20:11:52;;;;;;;18.17;2.38;;;;;;;21.18;45.57;101532.00;16117760;19;131243;-46
2023/05/11 20:17:14;;;;;;;8.23;2.38;;;;;;;21.19;45.47;101530.91;16115923;19;131725;-41
2023/05/11 20:22:36;;;;;;;7.97;2.08;;;;;;;21.19;45.50;101532.84;16119354;19;129396;-46
2023/05/11 20:27:59;;;;;;;13.13;2.47;;;;;;;21.20;45.70;101534.53;16116677;19;129461;-48
2023/05/11 20:33:21;;;;;;;9.45;2.72;;;;;;;21.19;45.58;101530.91;16118820;19;131315;-45
2023/05/11 20:38:47;;;;;;;16.63;2.20;;;;;;;21.21;45.74;101530.66;16113950;19;129774;-49
2023/05/11 20:44:12;;;;;;;8.68;2.30;;;;;;;21.20;45.37;101527.03;16110907;19;129671;-45
2023/05/11 20:49:34;;;;;;;16.80;2.97;;;;;;;21.20;45.54;101523.41;16116225;19;129735;-42
2023/05/11 20:54:59;;;;;;;16.58;3.15;;;;;;;21.17;45.55;101518.34;16114922;19;131003;-43
2023/05/11 21:00:22;;;;;;;11.10;2.60;;;;;;;21.11;45.48;101520.19;16115084;19;130676;-42
2023/05/11 21:05:44;;;;;;;10.38;2.47;;;;;;;21.07;45.73;101524.53;16095042;19;131190;-42
2023/05/11 21:11:06;;;;;;;18.27;2.40;;;;;;;21.03;45.37;101526.97;16116738;19;130908;-43
2023/05/11 21:16:27;;;;;;;10.95;2.65;;;;;;;20.99;45.62;101524.94;16115593;19;132079;-47
2023/05/11 21:21:49;;;;;;;6.85;2.47;;;;;;;20.94;45.39;101527.63;16114970;19;129774;-47
2023/05/11 21:27:11;;;;;;;12.25;2.88;;;;;;;20.89;45.39;101522.81;16110454;19;133185;-46
2023/05/11 21:32:33;;;;;;;9.40;2.53;;;;;;;20.86;45.55;101529.72;16109487;19;129520;-44
2023/05/11 21:37:56;;;;;;;10.30;2.45;;;;;;;20.83;45.15;101527.41;16112713;19;131097;-45
2023/05/11 21:43:18;;;;;;;8.18;2.33;;;;;;;20.80;45.08;101527.06;16110700;19;129650;-49
2023/05/11 21:48:41;;;;;;;10.18;2.85;;;;;;;20.76;45.27;101535.06;16112359;19;130526;-45
2023/05/11 21:54:03;;;;;;;7.07;2.50;;;;;;;20.74;45.26;101531.66;16108674;19;129392;-46
2023/05/11 21:59:28;;;;;;;4.80;2.40;;;;;;;20.71;45.25;101532.13;16113261;19;131765;-44
2023/05/11 22:04:50;;;;;;;6.33;2.23;;;;;;;20.69;45.52;101534.31;16108771;19;130355;-43
2023/05/11 22:10:12;;;;;;;6.75;2.50;;;;;;;20.67;45.44;101533.75;16109827;19;130315;-42
2023/05/11 22:15:33;;;;;;;8.50;2.08;;;;;;;20.65;45.45;101530.34;16109788;19;129927;-44
2023/05/11 22:20:55;;;;;;;6.05;2.60;;;;;;;20.63;44.97;101529.75;16107525;19;130424;-44
2023/05/11 22:26:18;;;;;;;4.70;2.75;;;;;;;20.60;44.98;101537.47;16109672;19;129017;-42
2023/05/11 22:31:40;;;;;;;10.90;2.65;;;;;;;20.56;45.43;101535.44;16106087;19;132605;-44
2023/05/11 22:37:05;;;;;;;4.78;2.53;;;;;;;20.55;45.25;101533.75;16110146;19;130101;-43
2023/05/11 22:42:29;;;;;;;7.70;2.55;;;;;;;20.52;44.94;101525.88;16106404;19;134248;-41
2023/05/11 22:47:51;;;;;;;7.60;2.40;;;;;;;20.50;45.35;101530.84;16107231;19;131274;-41
2023/05/11 22:53:13;;;;;;;8.85;3.05;;;;;;;20.49;45.00;101535.56;16113356;19;129427;-46
2023/05/11 22:58:35;;;;;;;3.55;2.80;;;;;;;20.47;44.95;101532.19;16114049;19;130762;-42
2023/05/11 23:03:57;;;;;;;6.22;3.15;;;;;;;20.43;44.93;101526.28;16103560;19;130304;-43
2023/05/11 23:09:20;;;;;;;3.95;3.05;;;;;;;20.41;45.03;101536.78;16108400;19;130751;-41
2023/05/11 23:14:42;;;;;;;5.47;3.33;;;;;;;20.40;45.10;101525.94;16112911;19;129251;-45
2023/05/11 23:20:05;;;;;;;6.80;3.42;;;;;;;20.38;45.03;101528.94;16105478;19;130608;-44
2023/05/11 23:25:27;;;;;;;6.60;3.47;;;;;;;20.37;44.86;101529.19;16107494;19;134167;-47
2023/05/11 23:30:49;;;;;;;6.20;3.47;;;;;;;20.35;44.78;101526.66;16105289;19;129340;-45
2023/05/11 23:36:10;;;;;;;6.07;3.92;;;;;;;20.33;45.29;101525.19;16098185;19;131611;-42
2023/05/11 23:41:32;;;;;;;5.03;3.10;;;;;;;20.31;44.86;101530.19;16115963;19;131066;-45
2023/05/11 23:46:54;;;;;;;4.45;3.42;;;;;;;20.29;45.11;101522.94;16119160;19;130773;-44
2023/05/11 23:52:16;;;;;;;4.30;3.35;;;;;;;20.27;44.81;101522.31;16116880;19;129492;-42
2023/05/11 23:57:38;;;;;;;3.78;3.25;;;;;;;20.24;44.97;101522.78;16115094;19;131364;-44
